createdAt,value
2022-12-08T00:01:01.541Z,95898.28
2022-12-08T00:03:28.064Z,95892.38
2022-12-08T00:05:54.618Z,95887.00
2022-12-08T00:08:21.040Z,95877.16
2022-12-08T00:10:49.339Z,95883.31
2022-12-08T00:13:15.972Z,95870.16
2022-12-08T00:15:42.328Z,95873.81
2022-12-08T00:18:08.709Z,95868.69
2022-12-08T00:20:35.054Z,95865.91
2022-12-08T00:23:01.394Z,95872.72
2022-12-08T00:25:27.740Z,95855.53
2022-12-08T00:27:54.126Z,95862.03
2022-12-08T00:30:20.518Z,95870.31
2022-12-08T00:32:46.909Z,95862.94
2022-12-08T00:35:13.309Z,95861.72
2022-12-08T00:37:39.659Z,95857.41
2022-12-08T00:40:06.430Z,95853.91
2022-12-08T00:42:33.105Z,95852.41
2022-12-08T00:44:59.517Z,95850.47
2022-12-08T00:47:25.917Z,95851.59
2022-12-08T00:49:52.263Z,95848.47
2022-12-08T00:52:18.624Z,95859.91
2022-12-08T00:54:44.953Z,95852.31
2022-12-08T00:57:11.327Z,95850.28
2022-12-08T00:59:37.702Z,95851.41
2022-12-08T01:02:04.078Z,95849.47
2022-12-08T01:04:30.429Z,95861.16
2022-12-08T01:06:56.808Z,95858.69
2022-12-08T01:09:23.175Z,95856.66
2022-12-08T01:11:49.583Z,95851.19
2022-12-08T01:14:15.977Z,95856.53
2022-12-08T01:16:42.411Z,95852.88
2022-12-08T01:19:08.802Z,95844.03
2022-12-08T01:21:35.197Z,95838.91
2022-12-08T01:24:01.549Z,95843.56
2022-12-08T01:26:27.921Z,95837.88
2022-12-08T01:28:54.282Z,95841.63
2022-12-08T01:31:20.720Z,95845.13
2022-12-08T01:33:47.133Z,95834.16
2022-12-08T01:36:13.491Z,95829.63
2022-12-08T01:38:39.824Z,95831.00
2022-12-08T01:41:06.208Z,95829.19
2022-12-08T01:43:32.591Z,95841.22
2022-12-08T01:45:59.010Z,95832.81
2022-12-08T01:48:25.446Z,95829.88
2022-12-08T01:50:51.845Z,95830.00
2022-12-08T01:53:18.191Z,95826.94
2022-12-08T01:55:44.540Z,95827.03
2022-12-08T01:58:10.925Z,95819.44
2022-12-08T02:00:37.262Z,95822.16
2022-12-08T02:03:03.680Z,95827.13
2022-12-08T02:05:30.150Z,95820.44
2022-12-08T02:07:56.505Z,95816.34
2022-12-08T02:10:22.881Z,95815.09
2022-12-08T02:12:49.223Z,95813.50
2022-12-08T02:15:15.559Z,95809.75
2022-12-08T02:17:41.886Z,95811.94
2022-12-08T02:20:08.268Z,95801.19
2022-12-08T02:22:34.618Z,95797.44
2022-12-08T02:25:00.948Z,95792.00
2022-12-08T02:27:27.329Z,95801.06
2022-12-08T02:29:53.671Z,95789.84
2022-12-08T02:32:20.059Z,95792.22
2022-12-08T02:34:46.414Z,95797.88
2022-12-08T02:37:12.782Z,95788.78
2022-12-08T02:39:39.172Z,95788.50
2022-12-08T02:42:05.562Z,95778.69
2022-12-08T02:44:31.976Z,95775.91
2022-12-08T02:46:58.332Z,95767.03
2022-12-08T02:49:24.658Z,95777.03
2022-12-08T02:51:50.992Z,95764.22
2022-12-08T02:54:17.348Z,95765.00
2022-12-08T02:56:43.739Z,95761.25
2022-12-08T02:59:10.159Z,95763.56
2022-12-08T03:01:37.781Z,95765.16
2022-12-08T03:04:04.258Z,95767.16
2022-12-08T03:06:30.640Z,95758.66
2022-12-08T03:08:56.978Z,95751.72
2022-12-08T03:11:23.355Z,95751.88
2022-12-08T03:13:49.759Z,95752.72
2022-12-08T03:16:16.148Z,95751.06
2022-12-08T03:18:44.194Z,95751.53
2022-12-08T03:21:10.742Z,95751.72
2022-12-08T03:23:37.158Z,95753.59
2022-12-08T03:26:03.552Z,95749.03
2022-12-08T03:28:29.972Z,95731.13
2022-12-08T03:30:56.380Z,95732.47
2022-12-08T03:33:22.744Z,95743.31
2022-12-08T03:35:49.138Z,95739.66
2022-12-08T03:38:15.466Z,95743.31
2022-12-08T03:40:41.802Z,95734.16
2022-12-08T03:43:08.184Z,95733.69
2022-12-08T03:45:34.586Z,95726.13
2022-12-08T03:48:00.939Z,95716.81
2022-12-08T03:50:27.302Z,95719.94
2022-12-08T03:52:53.628Z,95714.78
2022-12-08T03:55:20.020Z,95714.16
2022-12-08T03:57:46.374Z,95708.97
2022-12-08T04:00:12.765Z,95716.22
2022-12-08T04:02:39.152Z,95708.72
2022-12-08T04:05:05.554Z,95698.75
2022-12-08T04:07:31.941Z,95707.19
2022-12-08T04:09:58.310Z,95697.19
2022-12-08T04:12:24.637Z,95700.06
2022-12-08T04:14:51.027Z,95692.31
2022-12-08T04:17:17.372Z,95695.47
2022-12-08T04:19:43.753Z,95691.84
2022-12-08T04:22:10.184Z,95692.31
2022-12-08T04:24:36.562Z,95685.75
2022-12-08T04:27:02.948Z,95682.34
2022-12-08T04:29:29.290Z,95685.56
2022-12-08T04:31:55.753Z,95684.88
2022-12-08T04:34:22.206Z,95694.84
2022-12-08T04:36:48.607Z,95685.50
2022-12-08T04:39:14.965Z,95688.84
2022-12-08T04:41:41.339Z,95694.88
2022-12-08T04:44:07.703Z,95694.47
2022-12-08T04:46:35.161Z,95700.53
2022-12-08T04:49:03.166Z,95699.41
2022-12-08T04:51:29.511Z,95688.19
2022-12-08T04:53:55.892Z,95685.34
2022-12-08T04:56:22.271Z,95685.97
2022-12-08T04:58:48.672Z,95692.44
2022-12-08T05:01:15.100Z,95689.34
2022-12-08T05:03:41.532Z,95686.91
2022-12-08T05:06:07.918Z,95682.69
2022-12-08T05:08:34.345Z,95685.00
2022-12-08T05:11:00.751Z,95674.13
2022-12-08T05:13:27.095Z,95670.03
2022-12-08T05:15:53.452Z,95675.59
2022-12-08T05:18:19.848Z,95670.84
2022-12-08T05:20:46.199Z,95676.13
2022-12-08T05:23:12.586Z,95678.91
2022-12-08T05:25:38.974Z,95664.59
2022-12-08T05:28:39.131Z,95667.22
2022-12-08T05:30:51.668Z,95673.00
2022-12-08T05:33:18.035Z,95674.88
2022-12-08T05:35:44.413Z,95663.34
2022-12-08T05:38:10.798Z,95673.72
2022-12-08T05:40:37.193Z,95672.84
2022-12-08T05:43:03.540Z,95669.06
2022-12-08T05:45:29.914Z,95666.38
2022-12-08T05:47:56.325Z,95667.06
2022-12-08T05:50:22.670Z,95669.19
2022-12-08T05:52:49.050Z,95670.16
2022-12-08T05:55:15.415Z,95666.97
2022-12-08T05:57:41.765Z,95669.81
2022-12-08T06:00:08.298Z,95672.53
2022-12-08T06:02:34.854Z,95665.31
2022-12-08T06:05:01.267Z,95666.44
2022-12-08T06:07:27.616Z,95674.28
2022-12-08T06:09:53.955Z,95671.56
2022-12-08T06:12:20.295Z,95672.19
2022-12-08T06:14:46.678Z,95667.13
2022-12-08T06:17:13.057Z,95666.94
2022-12-08T06:19:42.182Z,95658.06
2022-12-08T06:22:08.574Z,95665.28
2022-12-08T06:24:37.929Z,95661.28
2022-12-08T06:27:04.321Z,95666.66
2022-12-08T06:29:30.727Z,95670.94
2022-12-08T06:31:57.285Z,95670.84
2022-12-08T06:34:23.697Z,95662.69
2022-12-08T06:36:50.191Z,95654.53
2022-12-08T06:39:16.569Z,95654.72
2022-12-08T06:41:42.953Z,95662.78
2022-12-08T06:44:09.350Z,95661.59
2022-12-08T06:46:35.738Z,95666.34
2022-12-08T06:49:02.146Z,95663.16
2022-12-08T06:51:28.499Z,95663.81
2022-12-08T06:53:54.866Z,95661.28
2022-12-08T06:56:21.257Z,95663.66
2022-12-08T06:58:52.416Z,95653.84
2022-12-08T07:01:19.380Z,95654.47
2022-12-08T07:03:45.854Z,95663.03
2022-12-08T07:06:12.211Z,95659.22
2022-12-08T07:08:38.613Z,95650.19
2022-12-08T07:11:04.945Z,95651.00
2022-12-08T07:13:31.332Z,95649.25
2022-12-08T07:15:57.726Z,95656.38
2022-12-08T07:18:24.119Z,95654.00
2022-12-08T07:20:50.463Z,95659.22
2022-12-08T07:23:16.801Z,95656.69
2022-12-08T07:25:43.194Z,95656.38
2022-12-08T07:28:09.548Z,95652.72
2022-12-08T07:30:35.959Z,95655.28
2022-12-08T07:33:02.358Z,95654.56
2022-12-08T07:35:28.716Z,95656.28
2022-12-08T07:37:55.105Z,95645.44
2022-12-08T07:40:21.505Z,95655.41
2022-12-08T07:42:47.890Z,95655.19
2022-12-08T07:45:14.267Z,95656.59
2022-12-08T07:47:40.606Z,95655.28
2022-12-08T07:50:07.095Z,95651.63
2022-12-08T07:52:33.598Z,95652.72
2022-12-08T07:55:00.008Z,95652.41
2022-12-08T07:57:26.414Z,95653.44
2022-12-08T07:59:52.820Z,95653.03
2022-12-08T08:02:24.792Z,95655.72
2022-12-08T08:04:52.349Z,95656.47
2022-12-08T08:07:18.856Z,95654.38
2022-12-08T08:09:45.357Z,95651.16
2022-12-08T08:12:30.365Z,95660.66
2022-12-08T08:14:57.480Z,95651.63
2022-12-08T08:17:23.951Z,95655.03
2022-12-08T08:19:50.415Z,95649.31
2022-12-08T08:22:16.758Z,95654.47
2022-12-08T08:24:45.079Z,95652.69
2022-12-08T08:27:11.769Z,95655.06
2022-12-08T08:29:38.160Z,95654.69
2022-12-08T08:32:04.551Z,95652.69
2022-12-08T08:34:30.946Z,95647.00
2022-12-08T08:36:57.404Z,95644.97
2022-12-08T08:39:23.837Z,95644.81
2022-12-08T08:41:50.229Z,95647.47
2022-12-08T08:44:16.617Z,95645.56
2022-12-08T08:46:43.060Z,95647.16
2022-12-08T08:49:09.504Z,95649.19
2022-12-08T08:51:35.925Z,95636.22
2022-12-08T08:54:02.318Z,95641.75
2022-12-08T08:56:28.691Z,95635.47
2022-12-08T08:58:55.090Z,95634.75
2022-12-08T09:01:21.491Z,95640.59
2022-12-08T09:03:47.910Z,95635.19
2022-12-08T09:06:14.329Z,95624.41
2022-12-08T09:08:40.782Z,95627.97
2022-12-08T09:11:07.150Z,95620.16
2022-12-08T09:13:33.527Z,95622.69
2022-12-08T09:15:59.927Z,95618.16
2022-12-08T09:18:26.347Z,95616.09
2022-12-08T09:20:52.741Z,95609.56
2022-12-08T09:23:19.116Z,95605.38
2022-12-08T09:25:45.506Z,95601.66
2022-12-08T09:28:11.864Z,95607.72
2022-12-08T09:30:38.251Z,95605.84
2022-12-08T09:33:04.653Z,95625.38
2022-12-08T09:35:31.053Z,95622.94
2022-12-08T09:37:57.457Z,95626.41
2022-12-08T09:40:23.855Z,95630.69
2022-12-08T09:42:50.258Z,95625.94
2022-12-08T09:45:16.614Z,95621.19
2022-12-08T09:47:43.002Z,95611.13
2022-12-08T09:50:09.428Z,95610.44
2022-12-08T09:52:35.823Z,95616.44
2022-12-08T09:55:02.331Z,95613.13
2022-12-08T09:57:28.667Z,95598.88
2022-12-08T09:59:55.058Z,95599.34
2022-12-08T10:02:21.499Z,95595.34
2022-12-08T10:04:48.022Z,95585.00
2022-12-08T10:07:14.396Z,95589.53
2022-12-08T10:09:41.051Z,95578.28
2022-12-08T10:12:07.509Z,95563.09
2022-12-08T10:14:33.960Z,95574.50
2022-12-08T10:17:00.451Z,95573.34
2022-12-08T10:19:26.864Z,95573.38
2022-12-08T10:21:53.232Z,95567.13
2022-12-08T10:24:19.577Z,95570.00
2022-12-08T10:26:45.954Z,95559.72
2022-12-08T10:29:12.304Z,95556.91
2022-12-08T10:31:38.891Z,95549.00
2022-12-08T10:34:05.318Z,95557.56
2022-12-08T10:36:31.719Z,95547.09
2022-12-08T10:38:58.079Z,95548.16
2022-12-08T10:41:24.457Z,95544.38
2022-12-08T10:43:50.852Z,95530.63
2022-12-08T10:46:17.328Z,95537.69
2022-12-08T10:48:43.727Z,95536.44
2022-12-08T10:51:10.080Z,95536.38
2022-12-08T10:53:36.439Z,95537.69
2022-12-08T10:56:02.849Z,95536.63
2022-12-08T10:58:29.337Z,95525.03
2022-12-08T11:00:55.815Z,95533.91
2022-12-08T11:03:22.252Z,95520.66
2022-12-08T11:05:48.588Z,95520.84
2022-12-08T11:08:15.029Z,95520.31
2022-12-08T11:10:41.434Z,95508.38
2022-12-08T11:13:07.793Z,95511.63
2022-12-08T11:15:34.143Z,95512.50
2022-12-08T11:18:00.533Z,95506.13
2022-12-08T11:20:26.920Z,95502.72
2022-12-08T11:22:53.301Z,95514.88
2022-12-08T11:25:19.697Z,95512.16
2022-12-08T11:27:46.076Z,95500.47
2022-12-08T11:30:14.583Z,95491.41
2022-12-08T11:32:41.421Z,95484.16
2022-12-08T11:35:07.774Z,95479.72
2022-12-08T11:37:35.195Z,95481.59
2022-12-08T11:40:01.919Z,95479.13
2022-12-08T11:42:28.450Z,95461.88
2022-12-08T11:44:54.800Z,95466.81
2022-12-08T11:47:21.189Z,95467.31
2022-12-08T11:52:13.770Z,95462.09
2022-12-08T11:54:40.129Z,95471.84
2022-12-08T11:57:06.492Z,95470.25
2022-12-08T11:59:32.856Z,95469.19
2022-12-08T12:01:59.383Z,95469.09
2022-12-08T12:04:25.788Z,95462.88
2022-12-08T12:06:55.712Z,95462.34
2022-12-08T12:09:22.227Z,95460.75
2022-12-08T12:11:48.563Z,95460.84
2022-12-08T12:14:14.960Z,95459.72
2022-12-08T12:16:41.448Z,95458.22
2022-12-08T12:19:07.911Z,95453.84
2022-12-08T12:21:34.300Z,95442.91
2022-12-08T12:24:00.649Z,95449.09
2022-12-08T12:26:27.000Z,95441.00
2022-12-08T12:28:53.458Z,95441.34
2022-12-08T12:31:19.900Z,95433.56
2022-12-08T12:33:46.330Z,95439.91
2022-12-08T12:36:12.685Z,95436.88
2022-12-08T12:38:39.062Z,95427.75
2022-12-08T12:41:05.411Z,95431.94
2022-12-08T12:43:31.750Z,95426.19
2022-12-08T12:45:58.171Z,95424.31
2022-12-08T12:48:24.651Z,95422.66
2022-12-08T12:50:51.048Z,95425.75
2022-12-08T12:53:17.456Z,95427.19
2022-12-08T12:55:43.842Z,95429.16
2022-12-08T12:58:10.203Z,95428.38
2022-12-08T13:00:36.547Z,95413.38
2022-12-08T13:03:03.006Z,95414.38
2022-12-08T13:05:29.413Z,95414.38
2022-12-08T13:07:55.792Z,95414.41
2022-12-08T13:10:22.181Z,95408.38
2022-12-08T13:12:48.522Z,95401.81
2022-12-08T13:15:14.870Z,95396.16
2022-12-08T13:17:41.210Z,95400.81
2022-12-08T13:20:08.043Z,95396.66
2022-12-08T13:22:34.532Z,95402.13
2022-12-08T13:25:00.921Z,95388.38
2022-12-08T13:27:27.323Z,95396.72
2022-12-08T13:29:53.717Z,95390.38
2022-12-08T13:32:20.140Z,95390.00
2022-12-08T13:34:46.539Z,95381.47
2022-12-08T13:37:12.891Z,95384.47
2022-12-08T13:39:39.236Z,95375.13
2022-12-08T13:42:05.619Z,95365.66
2022-12-08T13:45:18.474Z,95361.22
2022-12-08T13:47:33.237Z,95369.22
2022-12-08T13:56:51.286Z,95365.53
2022-12-08T13:58:19.493Z,95356.75
2022-12-08T14:00:45.868Z,95359.13
2022-12-08T14:03:12.319Z,95363.47
2022-12-08T14:06:10.516Z,95359.22
2022-12-08T14:08:50.708Z,95350.25
2022-12-08T14:11:11.455Z,95342.94
2022-12-08T14:13:37.815Z,95344.41
2022-12-08T14:16:04.211Z,95338.22
2022-12-08T14:18:30.584Z,95348.19
2022-12-08T14:21:19.937Z,95346.38
2022-12-08T14:23:43.324Z,95339.50
2022-12-08T14:26:09.705Z,95341.47
2022-12-08T14:28:40.041Z,95342.94
2022-12-08T14:31:09.458Z,95335.06
2022-12-08T14:33:35.866Z,95337.13
2022-12-08T14:36:02.254Z,95338.31
2022-12-08T14:38:28.679Z,95340.59
2022-12-08T14:40:55.162Z,95345.09
2022-12-08T14:43:21.584Z,95343.28
2022-12-08T14:45:47.982Z,95342.56
2022-12-08T14:48:14.367Z,95337.06
2022-12-08T14:50:40.783Z,95340.69
2022-12-08T14:53:07.131Z,95341.56
2022-12-08T14:55:33.471Z,95331.22
2022-12-08T14:57:59.862Z,95342.69
2022-12-08T15:00:26.225Z,95337.69
2022-12-08T15:02:52.615Z,95332.13
2022-12-08T15:05:19.049Z,95333.13
2022-12-08T15:07:45.535Z,95327.38
2022-12-08T15:10:11.999Z,95333.88
2022-12-08T15:12:38.360Z,95326.84
2022-12-08T15:15:04.715Z,95321.97
2022-12-08T15:17:31.140Z,95328.25
2022-12-08T15:19:57.534Z,95324.00
2022-12-08T15:22:23.872Z,95312.69
2022-12-08T15:24:50.223Z,95315.81
2022-12-08T15:27:16.621Z,95315.91
2022-12-08T15:29:43.000Z,95308.84
2022-12-08T15:32:09.349Z,95315.09
2022-12-08T15:34:35.726Z,95311.72
2022-12-08T15:37:02.116Z,95307.13
2022-12-08T15:39:28.518Z,95313.81
2022-12-08T15:41:56.049Z,95316.25
2022-12-08T15:44:22.446Z,95306.53
2022-12-08T15:46:48.834Z,95311.00
2022-12-08T15:49:15.265Z,95315.25
2022-12-08T15:51:41.618Z,95307.34
2022-12-08T15:54:08.009Z,95301.06
2022-12-08T15:56:37.382Z,95305.38
2022-12-08T15:59:07.596Z,95302.13
2022-12-08T16:01:34.061Z,95302.75
2022-12-08T16:09:33.486Z,95301.50
2022-12-08T16:12:09.615Z,95305.19
2022-12-08T16:17:22.987Z,95296.22
2022-12-08T16:19:49.371Z,95312.13
2022-12-08T16:25:17.759Z,95304.97
2022-12-08T16:28:08.406Z,95303.91
2022-12-08T16:30:31.262Z,95293.06
2022-12-08T16:32:57.645Z,95294.66
2022-12-08T16:35:23.998Z,95304.25
2022-12-08T16:37:50.377Z,95307.25
2022-12-08T16:40:16.781Z,95307.75
2022-12-08T16:42:43.179Z,95300.34
2022-12-08T16:45:09.530Z,95296.81
2022-12-08T16:47:35.889Z,95293.66
2022-12-08T16:50:02.247Z,95292.66
2022-12-08T16:52:28.625Z,95291.09
2022-12-08T16:54:55.027Z,95295.91
2022-12-08T16:57:21.389Z,95296.31
2022-12-08T16:59:47.718Z,95300.78
2022-12-08T17:02:16.629Z,95299.97
2022-12-08T17:04:43.204Z,95290.75
2022-12-08T17:07:09.769Z,95299.66
2022-12-08T17:09:36.155Z,95296.97
2022-12-08T17:12:04.253Z,95297.41
2022-12-08T17:14:30.888Z,95300.53
2022-12-08T17:16:57.322Z,95300.03
2022-12-08T17:19:23.712Z,95295.91
2022-12-08T17:21:50.042Z,95288.84
2022-12-08T17:24:21.761Z,95288.16
2022-12-08T17:26:48.492Z,95296.09
2022-12-08T17:29:14.913Z,95286.44
2022-12-08T17:31:41.336Z,95279.03
2022-12-08T17:34:07.744Z,95289.41
2022-12-08T17:36:34.137Z,95297.66
2022-12-08T17:39:00.567Z,95302.03
2022-12-08T17:41:26.981Z,95292.78
2022-12-08T17:43:53.369Z,95300.41
2022-12-08T17:46:19.945Z,95297.53
2022-12-08T17:48:46.386Z,95294.84
2022-12-08T17:51:12.738Z,95285.47
2022-12-08T17:53:39.151Z,95299.19
2022-12-08T17:56:05.558Z,95283.59
2022-12-08T17:58:31.911Z,95275.78
2022-12-08T18:00:58.330Z,95278.72
2022-12-08T18:03:24.775Z,95281.63
2022-12-08T18:05:51.158Z,95283.25
2022-12-08T18:08:17.532Z,95277.28
2022-12-08T18:10:43.973Z,95276.69
2022-12-08T18:13:10.371Z,95279.34
2022-12-08T18:15:39.341Z,95267.09
2022-12-08T18:18:05.872Z,95256.16
2022-12-08T18:20:32.255Z,95265.38
2022-12-08T18:22:58.587Z,95253.56
2022-12-08T18:25:24.924Z,95259.97
2022-12-08T18:27:51.282Z,95251.28
2022-12-08T18:30:17.675Z,95258.16
2022-12-08T18:32:44.084Z,95259.91
2022-12-08T18:35:10.494Z,95254.44
2022-12-08T18:37:36.890Z,95241.47
2022-12-08T18:40:03.525Z,95250.13
2022-12-08T18:42:30.165Z,95248.16
2022-12-08T18:44:56.519Z,95239.63
2022-12-08T18:47:22.882Z,95232.38
2022-12-08T18:49:49.242Z,95233.13
2022-12-08T18:52:19.285Z,95237.09
2022-12-08T18:55:05.681Z,95235.47
2022-12-08T18:57:33.319Z,95236.00
2022-12-08T18:59:59.696Z,95234.13
2022-12-08T19:02:26.172Z,95243.09
2022-12-08T19:04:53.993Z,95236.97
2022-12-08T19:07:20.409Z,95236.34
2022-12-08T19:09:46.766Z,95234.06
2022-12-08T19:12:13.161Z,95223.00
2022-12-08T19:14:39.496Z,95232.19
2022-12-08T19:17:05.882Z,95232.91
2022-12-08T19:19:32.252Z,95235.63
2022-12-08T19:21:58.629Z,95236.59
2022-12-08T19:24:24.993Z,95238.38
2022-12-08T19:26:51.372Z,95233.63
2022-12-08T19:29:17.785Z,95240.59
2022-12-08T19:31:44.195Z,95237.22
2022-12-08T19:34:10.569Z,95234.25
2022-12-08T19:36:36.898Z,95235.38
2022-12-08T19:39:03.361Z,95234.72
2022-12-08T19:41:29.727Z,95233.09
2022-12-08T19:43:56.114Z,95234.78
2022-12-08T19:46:22.646Z,95232.59
2022-12-08T19:48:49.173Z,95230.03
2022-12-08T19:51:15.519Z,95227.97
2022-12-08T19:53:47.194Z,95234.22
2022-12-08T19:56:14.094Z,95239.44
2022-12-08T19:58:40.453Z,95231.06
2022-12-08T20:01:06.808Z,95218.88
2022-12-08T20:03:33.228Z,95213.09
2022-12-08T20:05:59.674Z,95211.72
2022-12-08T20:08:26.053Z,95214.16
2022-12-08T20:10:52.465Z,95221.91
2022-12-08T20:13:18.855Z,95217.84
2022-12-08T20:15:45.304Z,95219.63
2022-12-08T20:18:11.793Z,95219.50
2022-12-08T20:20:38.161Z,95214.31
2022-12-08T20:23:04.543Z,95213.66
2022-12-08T20:25:30.956Z,95202.72
2022-12-08T20:27:57.371Z,95199.16
2022-12-08T20:30:23.955Z,95205.22
2022-12-08T20:32:50.356Z,95213.13
2022-12-08T20:35:16.800Z,95209.34
2022-12-08T20:37:43.167Z,95196.06
2022-12-08T20:40:09.558Z,95186.38
2022-12-08T20:42:35.914Z,95193.06
2022-12-08T20:45:02.328Z,95199.34
2022-12-08T20:47:28.865Z,95194.84
2022-12-08T20:49:55.435Z,95183.28
2022-12-08T20:52:21.901Z,95187.25
2022-12-08T20:54:48.362Z,95194.38
2022-12-08T20:57:14.775Z,95196.00
2022-12-08T20:59:41.228Z,95197.75
2022-12-08T21:02:07.685Z,95196.56
2022-12-08T21:04:34.274Z,95199.63
2022-12-08T21:07:00.724Z,95197.63
2022-12-08T21:09:27.283Z,95198.72
2022-12-08T21:11:54.029Z,95216.47
2022-12-08T21:14:20.543Z,95219.84
2022-12-08T21:16:47.191Z,95216.09
2022-12-08T21:19:13.720Z,95214.56
2022-12-08T21:21:40.209Z,95215.13
2022-12-08T21:24:06.880Z,95228.56
2022-12-08T21:26:33.465Z,95233.91
2022-12-08T21:28:59.942Z,95229.09
2022-12-08T21:31:26.506Z,95223.25
2022-12-08T21:33:52.984Z,95224.56
2022-12-08T21:36:19.400Z,95220.22
2022-12-08T21:38:45.915Z,95227.84
2022-12-08T21:41:12.290Z,95234.91
2022-12-08T21:43:38.859Z,95231.53
2022-12-08T21:46:05.352Z,95226.06
2022-12-08T21:48:31.917Z,95214.88
2022-12-08T21:50:58.392Z,95216.03
2022-12-08T21:53:24.779Z,95213.31
2022-12-08T21:55:51.140Z,95209.28
2022-12-08T21:58:17.645Z,95204.38
2022-12-08T22:00:44.286Z,95213.91
2022-12-08T22:03:10.860Z,95205.72
2022-12-08T22:05:37.568Z,95203.09
2022-12-08T22:08:04.119Z,95201.78
2022-12-08T22:10:30.615Z,95201.50
2022-12-08T22:12:57.154Z,95192.88
2022-12-08T22:15:23.673Z,95196.56
2022-12-08T22:17:50.059Z,95198.50
2022-12-08T22:20:16.859Z,95196.09
2022-12-08T22:22:43.470Z,95188.56
2022-12-08T22:25:09.887Z,95192.84
2022-12-08T22:27:36.599Z,95190.84
2022-12-08T22:30:03.185Z,95190.97
2022-12-08T22:32:29.825Z,95199.88
2022-12-08T22:34:56.286Z,95188.22
2022-12-08T22:37:22.677Z,95193.28
2022-12-08T22:39:49.071Z,95190.84
2022-12-08T22:42:15.567Z,95197.94
2022-12-08T22:44:42.133Z,95190.59
2022-12-08T22:47:08.633Z,95194.47
2022-12-08T22:49:35.368Z,95192.41
2022-12-08T22:52:01.894Z,95189.16
2022-12-08T22:54:28.290Z,95183.25
2022-12-08T22:56:54.757Z,95187.91
2022-12-08T22:59:21.127Z,95179.13
2022-12-08T23:01:47.502Z,95179.00
2022-12-08T23:04:17.644Z,95172.69
2022-12-08T23:06:44.742Z,95176.03
2022-12-08T23:09:11.343Z,95180.41
2022-12-08T23:11:37.819Z,95176.78
2022-12-08T23:14:04.375Z,95164.38
2022-12-08T23:16:31.176Z,95175.88
2022-12-08T23:18:57.821Z,95167.31
2022-12-08T23:21:24.370Z,95165.50
2022-12-08T23:23:50.947Z,95162.41
2022-12-08T23:26:17.495Z,95163.38
2022-12-08T23:28:43.958Z,95165.66
2022-12-08T23:31:10.377Z,95167.56
2022-12-08T23:33:36.869Z,95166.22
2022-12-08T23:36:03.443Z,95156.50
2022-12-08T23:38:29.867Z,95157.84
2022-12-08T23:40:56.361Z,95152.22
2022-12-08T23:43:22.737Z,95146.00
2022-12-08T23:45:49.104Z,95150.72
2022-12-08T23:48:15.584Z,95150.50
2022-12-08T23:50:41.949Z,95146.31
2022-12-08T23:53:08.512Z,95138.66
2022-12-08T23:55:34.970Z,95132.19
2022-12-08T23:58:01.597Z,95136.13
